Time;durP1;ratioP1;P1;durP2;ratioP2;P2;SDS_P1;SDS_P2;PMS_P1;PMS_P2;Temp;Humidity;BMP_temperature;BMP_pressure;BME280_temperature;BME280_humidity;BME280_pressure;Samples;Min_cycle;Max_cycle;Signal;HPM_P1;HPM_P2
2023/08/05 01:27:35;;;;;;;32.33;19.35;;;11.10;99.90;;;;;;4951523;29;20049;-85
2023/08/05 01:30:11;;;;;;;24.02;17.27;;;11.00;99.90;;;;;;4920011;29;20035;-85
2023/08/05 01:33:02;;;;;;;15.93;13.77;;;11.00;99.90;;;;;;4950548;29;20055;-85
2023/08/05 01:35:29;;;;;;;24.25;16.10;;;11.00;99.90;;;;;;4950536;29;20071;-84
2023/08/05 01:37:57;;;;;;;17.25;15.15;;;11.10;99.90;;;;;;4935971;29;20278;-85
2023/08/05 01:40:28;;;;;;;16.17;14.48;;;11.10;99.90;;;;;;4921213;29;20031;-84
2023/08/05 01:42:57;;;;;;;19.60;15.20;;;11.10;99.90;;;;;;4929239;29;20058;-84
2023/08/05 01:45:24;;;;;;;18.65;15.65;;;11.10;99.90;;;;;;4933621;29;20413;-84
2023/08/05 01:47:59;;;;;;;21.80;16.40;;;11.20;99.90;;;;;;4927522;29;20535;-85
2023/08/05 01:51:24;;;;;;;21.90;17.75;;;11.20;99.90;;;;;;4911695;29;20134;-85
2023/08/05 01:55:13;;;;;;;17.52;15.43;;;11.30;99.90;;;;;;4913540;29;20055;-84
2023/08/05 02:02:21;;;;;;;19.08;15.82;;;11.50;99.90;;;;;;4919509;29;20134;-86
2023/08/05 03:17:13;;;;;;;17.83;14.98;;;12.50;99.90;;;;;;4887593;29;20099;-85
2023/08/05 03:20:47;;;;;;;16.42;13.85;;;12.60;99.90;;;;;;4909548;29;20056;-84
2023/08/05 03:24:50;;;;;;;14.20;12.77;;;12.60;99.90;;;;;;4823864;29;20046;-84
2023/08/05 03:28:33;;;;;;;16.63;14.43;;;12.60;99.90;;;;;;4833488;29;20037;-85
2023/08/05 03:31:31;;;;;;;17.00;13.93;;;12.60;99.90;;;;;;4843658;29;20174;-85
2023/08/05 03:33:59;;;;;;;15.45;13.95;;;12.60;99.90;;;;;;4873104;29;20071;-85
2023/08/05 03:36:25;;;;;;;14.30;12.80;;;12.70;99.90;;;;;;4924831;29;20510;-85
2023/08/05 03:38:59;;;;;;;17.50;14.77;;;12.70;99.90;;;;;;4938708;29;20051;-85
2023/08/05 03:41:44;;;;;;;14.55;13.05;;;12.70;99.90;;;;;;4953343;29;20126;-85
2023/08/05 03:52:53;;;;;;;15.38;13.70;;;12.70;99.90;;;;;;4935135;29;20099;-85
2023/08/05 03:59:17;;;;;;;15.73;13.93;;;12.80;99.90;;;;;;4953761;29;20043;-85
2023/08/05 04:01:45;;;;;;;16.23;13.88;;;12.80;99.90;;;;;;4939075;29;20039;-86
2023/08/05 04:04:11;;;;;;;19.48;15.23;;;12.80;99.90;;;;;;4908535;29;20125;-85
2023/08/05 04:06:39;;;;;;;17.92;15.57;;;12.80;99.90;;;;;;4920558;29;20043;-85
2023/08/05 04:09:06;;;;;;;16.75;15.23;;;12.90;99.90;;;;;;4903980;29;20066;-85
2023/08/05 04:11:33;;;;;;;15.65;14.05;;;12.90;99.90;;;;;;4939226;29;20047;-85
2023/08/05 04:13:59;;;;;;;14.88;13.38;;;12.90;99.90;;;;;;4938535;29;20071;-86
2023/08/05 04:16:27;;;;;;;20.05;13.98;;;13.00;99.90;;;;;;4946907;29;20039;-87
2023/08/05 04:18:53;;;;;;;17.70;15.82;;;13.00;99.90;;;;;;4949360;29;20296;-86
2023/08/05 04:21:20;;;;;;;17.00;15.05;;;13.00;99.90;;;;;;4938245;29;20122;-86
2023/08/05 04:23:46;;;;;;;17.08;15.40;;;13.00;99.90;;;;;;4921730;29;20532;-86
2023/08/05 04:26:12;;;;;;;18.45;16.42;;;13.00;99.90;;;;;;4921779;29;20023;-85
2023/08/05 04:28:38;;;;;;;17.70;15.75;;;13.10;99.90;;;;;;4953381;28;20185;-86
2023/08/05 04:31:04;;;;;;;22.75;18.63;;;13.10;99.90;;;;;;4938591;29;20040;-86
2023/08/05 04:33:31;;;;;;;17.50;15.57;;;13.10;99.90;;;;;;4954335;28;20094;-85
2023/08/05 04:35:59;;;;;;;25.50;18.38;;;13.20;99.90;;;;;;4922592;29;20574;-85
2023/08/05 04:38:25;;;;;;;16.35;14.75;;;13.20;99.90;;;;;;4926332;29;20536;-86
2023/08/05 04:40:51;;;;;;;19.80;17.35;;;13.30;99.90;;;;;;4935032;29;20059;-86
2023/08/05 04:43:17;;;;;;;22.38;18.65;;;13.30;99.90;;;;;;4919462;29;20043;-86
2023/08/05 04:45:44;;;;;;;22.17;18.55;;;13.40;99.90;;;;;;4921645;29;20043;-85
2023/08/05 04:48:10;;;;;;;19.20;17.13;;;13.50;99.90;;;;;;4935724;29;20035;-86
2023/08/05 04:50:40;;;;;;;17.58;15.82;;;13.60;99.90;;;;;;4934588;29;20047;-86
2023/08/05 04:53:06;;;;;;;18.02;16.00;;;13.60;99.90;;;;;;4919164;29;20414;-87
2023/08/05 04:55:32;;;;;;;18.63;16.80;;;13.70;99.90;;;;;;4905038;29;20035;-86
2023/08/05 04:57:58;;;;;;;17.88;15.98;;;13.70;99.90;;;;;;4953394;29;20041;-86
2023/08/05 05:00:25;;;;;;;23.13;19.92;;;13.80;99.90;;;;;;4917703;29;20043;-86
2023/08/05 05:02:51;;;;;;;13.25;11.90;;;13.90;99.90;;;;;;4906642;29;20039;-86
2023/08/05 05:05:17;;;;;;;16.40;14.88;;;14.00;99.90;;;;;;4953655;29;20106;-86
2023/08/05 05:07:46;;;;;;;14.05;12.75;;;14.10;99.90;;;;;;4918709;29;20050;-86
2023/08/05 05:10:11;;;;;;;16.10;14.70;;;14.10;99.90;;;;;;4937242;29;20042;-86
2023/08/05 05:12:37;;;;;;;17.77;16.00;;;14.20;99.90;;;;;;4920900;29;20054;-87
2023/08/05 05:15:03;;;;;;;18.67;16.70;;;14.30;99.90;;;;;;4936808;29;20043;-86
2023/08/05 05:17:35;;;;;;;13.23;11.88;;;14.50;99.90;;;;;;4923790;29;20043;-86
2023/08/05 05:20:05;;;;;;;13.68;12.05;;;14.70;99.90;;;;;;4921547;29;20113;-86
2023/08/05 05:22:31;;;;;;;13.20;12.10;;;15.00;99.90;;;;;;4937288;29;20047;-86
2023/08/05 05:24:58;;;;;;;13.80;11.93;;;15.50;99.90;;;;;;4933968;29;20087;-86
2023/08/05 05:27:24;;;;;;;14.65;13.13;;;15.60;99.90;;;;;;4918134;29;20048;-86
2023/08/05 05:29:49;;;;;;;14.07;12.68;;;15.50;99.90;;;;;;4949374;28;20058;-87
2023/08/05 05:32:15;;;;;;;17.38;14.60;;;15.30;99.90;;;;;;4937108;29;20031;-87
2023/08/05 05:34:41;;;;;;;14.98;13.32;;;15.20;99.90;;;;;;4937133;29;20082;-86
2023/08/05 05:37:07;;;;;;;15.48;13.85;;;15.00;99.90;;;;;;4936804;29;20046;-87
2023/08/05 05:39:32;;;;;;;13.75;11.70;;;14.90;99.90;;;;;;4914355;29;20042;-85
2023/08/05 05:41:59;;;;;;;14.68;12.90;;;14.90;99.90;;;;;;4950233;29;20045;-87
2023/08/05 05:44:27;;;;;;;13.23;12.02;;;14.80;99.90;;;;;;4931321;29;20070;-87
2023/08/05 05:46:54;;;;;;;14.30;12.88;;;14.90;99.90;;;;;;4921240;29;20043;-87
2023/08/05 05:49:19;;;;;;;13.75;12.35;;;14.80;99.90;;;;;;4936137;29;20038;-86
2023/08/05 05:52:07;;;;;;;14.68;11.75;;;14.90;99.90;;;;;;4935215;29;20043;-90
2023/08/05 05:54:54;;;;;;;15.93;13.00;;;14.90;99.90;;;;;;4948678;29;20516;-87
2023/08/05 05:57:23;;;;;;;15.68;14.15;;;15.10;99.90;;;;;;4932689;29;20039;-85
2023/08/05 05:59:48;;;;;;;15.60;13.85;;;15.30;99.90;;;;;;4932347;28;20051;-85
2023/08/05 06:02:14;;;;;;;13.95;12.65;;;15.40;99.90;;;;;;4932511;29;20048;-84
2023/08/05 06:04:42;;;;;;;14.25;12.95;;;15.50;99.90;;;;;;4935334;29;20421;-83
2023/08/05 06:07:08;;;;;;;12.60;11.30;;;15.60;99.90;;;;;;4937410;29;20391;-82
2023/08/05 06:09:48;;;;;;;12.40;11.13;;;15.60;99.90;;;;;;4905308;29;20043;-84
2023/08/05 06:12:27;;;;;;;13.10;11.80;;;15.70;99.90;;;;;;4950223;28;20059;-88
2023/08/05 06:15:12;;;;;;;12.48;11.15;;;15.80;99.90;;;;;;4951250;28;20058;-83
2023/08/05 06:17:39;;;;;;;10.27;8.10;;;15.70;99.90;;;;;;4918602;29;20031;-82
2023/08/05 06:20:06;;;;;;;12.27;11.07;;;15.70;99.90;;;;;;4920395;29;20050;-84
2023/08/05 06:35:06;;;;;;;9.27;8.25;;;15.60;99.90;;;;;;5787685;22;20054;-83
2023/08/05 06:40:27;;;;;;;12.02;9.95;;;15.50;99.90;;;;;;5875102;22;20050;-85
2023/08/05 06:42:59;;;;;;;9.40;7.93;;;15.40;99.90;;;;;;4938919;28;20050;-84
2023/08/05 06:45:26;;;;;;;10.57;8.57;;;15.50;99.90;;;;;;4941350;28;20497;-83
2023/08/05 06:47:52;;;;;;;10.80;8.18;;;15.60;99.90;;;;;;4946012;28;20035;-82
2023/08/05 06:50:18;;;;;;;8.73;7.65;;;15.70;99.90;;;;;;4939891;28;20402;-83
2023/08/05 06:52:44;;;;;;;9.70;7.32;;;15.90;99.90;;;;;;4938353;28;20038;-80
2023/08/05 06:55:10;;;;;;;8.60;6.93;;;16.10;99.90;;;;;;4955117;28;20041;-80
2023/08/05 06:57:36;;;;;;;9.43;6.78;;;16.20;99.90;;;;;;4957272;28;20482;-82
2023/08/05 07:00:02;;;;;;;11.35;6.50;;;16.30;99.90;;;;;;4959055;28;20065;-82
2023/08/05 07:02:28;;;;;;;9.50;6.97;;;16.30;99.90;;;;;;4955152;28;20046;-83
2023/08/05 07:04:54;;;;;;;10.52;6.72;;;16.30;99.90;;;;;;4947090;28;20035;-84
2023/08/05 07:07:20;;;;;;;9.95;6.40;;;16.30;99.90;;;;;;4965366;28;20042;-83
2023/08/05 07:09:46;;;;;;;8.07;6.57;;;16.30;99.90;;;;;;4968797;28;20374;-83
2023/08/05 07:12:12;;;;;;;9.27;7.47;;;16.30;99.90;;;;;;4954055;29;20164;-82
2023/08/05 07:14:38;;;;;;;7.18;6.45;;;16.20;99.90;;;;;;4957344;28;20451;-83
2023/08/05 07:17:06;;;;;;;8.25;7.32;;;16.30;99.90;;;;;;4941788;28;20123;-85
2023/08/05 07:19:32;;;;;;;9.77;6.93;;;16.40;99.90;;;;;;4970383;28;20042;-85
2023/08/05 07:21:58;;;;;;;10.27;7.03;;;16.50;99.90;;;;;;4959090;28;20065;-82
2023/08/05 07:24:24;;;;;;;7.75;7.00;;;16.60;99.90;;;;;;4959401;28;20046;-80
2023/08/05 07:26:50;;;;;;;11.75;7.93;;;16.70;99.90;;;;;;4958370;28;20049;-80
2023/08/05 07:29:15;;;;;;;7.95;6.72;;;16.80;99.90;;;;;;4950837;29;20035;-81
2023/08/05 07:31:41;;;;;;;8.25;7.13;;;16.90;99.90;;;;;;4957547;28;20047;-81
2023/08/05 07:34:08;;;;;;;7.82;6.63;;;16.90;99.90;;;;;;4960634;28;20061;-83
2023/08/05 07:36:43;;;;;;;6.88;5.65;;;17.00;99.90;;;;;;4975613;28;20105;-83
2023/08/05 07:39:12;;;;;;;7.90;5.45;;;17.20;99.90;;;;;;4962092;28;20564;-83
2023/08/05 07:41:40;;;;;;;8.18;6.22;;;17.30;99.90;;;;;;4961713;28;20173;-83
2023/08/05 07:44:07;;;;;;;6.90;5.60;;;17.30;99.90;;;;;;4961728;28;20125;-83
2023/08/05 07:46:36;;;;;;;7.60;5.20;;;17.40;99.90;;;;;;4958843;28;20089;-83
2023/08/05 07:49:03;;;;;;;7.82;4.78;;;17.60;99.90;;;;;;4959039;28;20090;-83
2023/08/05 07:51:30;;;;;;;7.65;5.00;;;17.70;99.90;;;;;;4961558;28;20053;-83
2023/08/05 07:53:59;;;;;;;6.70;4.55;;;17.90;99.90;;;;;;4961924;28;20050;-83
2023/08/05 07:56:25;;;;;;;7.68;4.28;;;18.00;99.90;;;;;;4975433;28;20034;-83
2023/08/05 07:59:17;;;;;;;6.20;4.50;;;18.00;99.90;;;;;;4989527;23;20712;-84
2023/08/05 08:02:27;;;;;;;6.82;4.32;;;18.10;99.90;;;;;;4986119;28;20034;-83
2023/08/05 08:04:54;;;;;;;8.00;4.15;;;18.10;99.90;;;;;;4990028;28;20125;-82
2023/08/05 08:07:23;;;;;;;6.53;3.97;;;18.10;99.90;;;;;;4961144;28;20089;-86
2023/08/05 08:09:48;;;;;;;5.70;4.22;;;18.10;99.90;;;;;;4953168;28;20038;-84
2023/08/05 08:12:14;;;;;;;7.68;4.30;;;18.10;99.90;;;;;;4964026;28;20532;-81
2023/08/05 08:14:40;;;;;;;7.18;4.18;;;18.10;99.90;;;;;;4958726;28;20452;-83
2023/08/05 08:17:05;;;;;;;6.40;4.32;;;18.10;99.90;;;;;;4973452;28;20041;-86
2023/08/05 08:19:45;;;;;;;6.60;4.57;;;18.20;99.90;;;;;;4948942;28;20043;-85
2023/08/05 08:22:11;;;;;;;6.40;4.35;;;18.30;99.90;;;;;;4947052;28;20047;-84
2023/08/05 08:24:37;;;;;;;7.28;4.13;;;18.30;99.90;;;;;;4956951;28;20038;-83
2023/08/05 08:27:06;;;;;;;5.32;3.50;;;18.40;99.90;;;;;;4957179;28;20110;-84
2023/08/05 08:29:31;;;;;;;6.35;3.90;;;18.50;99.90;;;;;;4957183;28;20138;-84
2023/08/05 08:31:57;;;;;;;5.90;3.65;;;18.40;99.90;;;;;;4973738;28;20039;-85
2023/08/05 08:34:23;;;;;;;6.30;4.00;;;18.50;99.90;;;;;;4957056;28;20560;-86
2023/08/05 08:36:58;;;;;;;6.80;3.53;;;18.60;99.90;;;;;;4956050;28;20325;-86
2023/08/05 08:39:23;;;;;;;4.97;3.30;;;18.80;99.90;;;;;;4972754;28;20039;-85
2023/08/05 08:41:50;;;;;;;5.20;3.45;;;19.00;99.90;;;;;;4957540;28;20043;-86
2023/08/05 08:44:20;;;;;;;5.30;3.20;;;19.10;99.90;;;;;;4973666;28;20042;-87
2023/08/05 08:46:51;;;;;;;5.85;4.00;;;19.20;99.90;;;;;;4967189;28;20405;-85
2023/08/05 08:49:20;;;;;;;6.53;3.25;;;19.20;99.90;;;;;;4972516;28;20113;-84
2023/08/05 08:51:53;;;;;;;4.65;3.47;;;19.40;99.90;;;;;;4989318;28;20057;-85
2023/08/05 08:54:45;;;;;;;6.68;3.25;;;19.50;99.90;;;;;;4980694;28;20038;-89
2023/08/05 08:57:24;;;;;;;6.20;3.50;;;19.90;99.90;;;;;;4964938;28;20074;-87
2023/08/05 08:59:54;;;;;;;5.10;3.60;;;20.00;99.90;;;;;;4956584;28;20094;-85
2023/08/05 09:02:26;;;;;;;4.90;3.13;;;20.40;99.90;;;;;;4953796;28;20062;-83
2023/08/05 09:05:11;;;;;;;5.97;3.55;;;20.80;99.90;;;;;;4969118;28;20071;-84
2023/08/05 09:07:40;;;;;;;6.15;3.55;;;21.60;99.90;;;;;;4947842;29;20446;-87
2023/08/05 09:10:07;;;;;;;5.45;3.30;;;22.20;99.90;;;;;;4956696;28;20406;-87
2023/08/05 09:12:38;;;;;;;6.25;3.45;;;22.50;99.90;;;;;;4957318;28;20086;-84
2023/08/05 09:15:05;;;;;;;7.80;3.70;;;22.60;99.90;;;;;;4956783;28;20433;-84
2023/08/05 09:18:03;;;;;;;5.22;3.17;;;22.70;99.90;;;;;;4980967;28;20412;-88
2023/08/05 09:20:41;;;;;;;4.90;3.30;;;23.00;99.90;;;;;;4951287;28;20097;-86
2023/08/05 09:23:23;;;;;;;5.95;3.80;;;23.20;99.90;;;;;;4975846;28;20163;-84
2023/08/05 09:25:49;;;;;;;5.53;4.10;;;23.00;99.90;;;;;;4946917;28;20039;-84
2023/08/05 09:28:48;;;;;;;6.10;4.38;;;22.60;99.90;;;;;;4941760;28;20455;-87
2023/08/05 09:31:17;;;;;;;4.95;4.20;;;22.60;99.90;;;;;;4965191;28;20113;-86
2023/08/05 09:33:51;;;;;;;8.20;4.93;;;22.40;99.90;;;;;;4957046;28;20517;-85
2023/08/05 09:36:20;;;;;;;6.50;5.28;;;22.20;99.90;;;;;;4956788;28;20098;-81
2023/08/05 09:39:43;;;;;;;;;;;;;;;;;;;;;
2023/08/05 09:42:37;;;;;;;8.10;5.50;;;21.70;99.90;;;;;;4952692;28;20505;-81
2023/08/05 09:45:14;;;;;;;8.27;5.38;;;21.50;99.90;;;;;;4937838;29;20050;-87
2023/08/05 09:47:42;;;;;;;7.88;5.53;;;21.40;99.90;;;;;;4937533;28;20102;-84
2023/08/05 09:50:18;;;;;;;8.38;5.90;;;21.70;99.90;;;;;;4937479;29;20510;-88
2023/08/05 09:52:55;;;;;;;8.23;6.10;;;22.00;99.90;;;;;;4959155;28;20047;-86
2023/08/05 09:55:27;;;;;;;6.20;5.57;;;22.10;99.90;;;;;;4963652;28;20117;-87
2023/08/05 09:58:07;;;;;;;6.63;5.85;;;22.00;99.90;;;;;;4971719;28;20129;-84
2023/08/05 10:00:33;;;;;;;9.23;7.28;;;21.90;99.90;;;;;;4956265;28;20046;-86
2023/08/05 10:03:00;;;;;;;9.05;6.88;;;21.80;99.90;;;;;;4956867;28;20482;-87
2023/08/05 10:05:39;;;;;;;8.20;6.85;;;21.90;99.90;;;;;;4956512;28;20051;-85
2023/08/05 10:08:06;;;;;;;8.02;7.22;;;22.10;99.90;;;;;;4952487;28;20043;-87
2023/08/05 10:10:37;;;;;;;9.15;7.50;;;22.20;99.90;;;;;;4979379;28;20122;-87
2023/08/05 10:13:08;;;;;;;9.52;6.80;;;22.30;99.90;;;;;;4991794;28;20073;-88
2023/08/05 10:16:01;;;;;;;8.20;7.40;;;22.30;99.90;;;;;;4975561;28;20489;-89
2023/08/05 10:18:32;;;;;;;8.52;7.72;;;22.60;99.90;;;;;;4957215;28;20059;-88
2023/08/05 10:21:06;;;;;;;8.40;6.75;;;22.90;99.90;;;;;;4972732;28;20140;-88
2023/08/05 10:23:41;;;;;;;7.55;6.82;;;23.10;99.90;;;;;;4956014;28;20054;-88
2023/08/05 10:26:07;;;;;;;7.20;6.32;;;23.40;99.90;;;;;;4958537;28;20118;-89
2023/08/05 10:28:45;;;;;;;6.63;6.03;;;23.60;99.90;;;;;;4959845;28;20180;-88
2023/08/05 10:31:25;;;;;;;6.97;6.28;;;23.50;99.90;;;;;;4959281;28;20043;-88
2023/08/05 10:34:10;;;;;;;7.95;7.03;;;23.10;99.90;;;;;;4941195;29;20130;-87
2023/08/05 10:36:48;;;;;;;7.25;6.55;;;22.70;99.90;;;;;;4941432;29;20106;-83
2023/08/05 10:39:39;;;;;;;16.05;8.55;;;22.20;99.90;;;;;;4959959;28;20493;-86
2023/08/05 10:42:35;;;;;;;11.45;8.93;;;21.80;99.90;;;;;;4973320;28;20508;-83
2023/08/05 10:45:04;;;;;;;13.20;11.00;;;21.30;99.90;;;;;;4979810;28;20050;-84
2023/08/05 10:47:45;;;;;;;12.40;11.23;;;20.80;99.90;;;;;;4979867;28;20042;-87
2023/08/05 10:50:15;;;;;;;13.40;12.15;;;20.50;99.90;;;;;;4960431;28;20429;-87
2023/08/05 10:52:40;;;;;;;10.98;10.07;;;20.40;99.90;;;;;;4965669;28;20545;-86
2023/08/05 10:55:11;;;;;;;11.05;10.00;;;20.50;99.90;;;;;;4960231;28;20117;-87
2023/08/05 10:57:40;;;;;;;11.05;9.05;;;20.60;99.90;;;;;;4960011;28;20090;-87
2023/08/05 11:00:11;;;;;;;9.02;8.13;;;20.70;99.90;;;;;;4959287;28;20046;-87
2023/08/05 11:02:37;;;;;;;9.45;8.57;;;20.70;99.90;;;;;;4966451;28;20519;-87
2023/08/05 11:05:08;;;;;;;8.50;7.70;;;20.80;99.90;;;;;;4972779;28;20519;-86
2023/08/05 11:07:42;;;;;;;8.80;7.90;;;20.90;99.90;;;;;;4947599;28;20041;-88
2023/08/05 11:10:09;;;;;;;8.98;8.15;;;21.10;99.90;;;;;;4940342;29;20035;-87
2023/08/05 11:12:38;;;;;;;9.15;8.25;;;21.40;99.90;;;;;;4956195;29;20402;-88
2023/08/05 11:15:04;;;;;;;8.55;7.75;;;21.80;99.90;;;;;;4940323;28;20043;-84
2023/08/05 11:17:30;;;;;;;8.25;7.45;;;22.10;99.90;;;;;;4975841;28;20432;-86
2023/08/05 11:19:57;;;;;;;7.85;7.22;;;22.40;99.90;;;;;;4959094;28;20082;-87
2023/08/05 11:22:27;;;;;;;7.95;6.22;;;22.60;99.90;;;;;;4960001;28;20046;-86
2023/08/05 11:25:01;;;;;;;6.80;6.10;;;22.60;99.90;;;;;;4963803;28;20498;-87
2023/08/05 11:27:36;;;;;;;6.90;6.30;;;22.60;99.90;;;;;;4940172;29;20077;-86
2023/08/05 11:30:19;;;;;;;7.75;6.28;;;22.50;99.90;;;;;;4947303;28;20401;-86
2023/08/05 11:33:03;;;;;;;8.05;6.07;;;22.40;99.90;;;;;;4958863;28;20047;-84
2023/08/05 11:35:31;;;;;;;6.68;5.97;;;22.40;99.90;;;;;;4975083;28;20555;-84
2023/08/05 11:37:57;;;;;;;6.07;4.80;;;22.50;99.90;;;;;;4975033;28;20030;-86
2023/08/05 11:40:24;;;;;;;5.43;4.63;;;22.50;99.90;;;;;;4977484;28;20134;-86
2023/08/05 11:42:52;;;;;;;5.07;4.10;;;22.50;99.90;;;;;;4989374;28;20043;-86
2023/08/05 11:45:18;;;;;;;4.25;3.88;;;22.60;99.90;;;;;;4989132;28;20046;-86
2023/08/05 11:47:44;;;;;;;4.28;3.28;;;22.70;99.90;;;;;;4956373;28;20449;-87
2023/08/05 11:50:12;;;;;;;3.95;3.17;;;22.60;99.90;;;;;;4961442;28;20097;-87
2023/08/05 11:52:39;;;;;;;4.30;3.63;;;22.40;99.90;;;;;;4984193;28;20045;-87
2023/08/05 11:55:07;;;;;;;3.92;3.20;;;22.30;99.90;;;;;;4991984;28;20129;-87
2023/08/05 11:57:33;;;;;;;4.88;3.53;;;22.10;99.90;;;;;;4993360;28;20386;-87
2023/08/05 12:00:09;;;;;;;4.25;3.85;;;22.00;99.90;;;;;;4993852;28;20053;-88
2023/08/05 12:02:36;;;;;;;3.97;3.55;;;22.00;99.90;;;;;;4993723;28;20046;-87
2023/08/05 12:05:03;;;;;;;4.38;3.78;;;21.80;99.90;;;;;;4983890;28;20043;-87
2023/08/05 12:07:29;;;;;;;4.30;3.22;;;21.70;99.90;;;;;;4977185;28;20050;-87
2023/08/05 12:10:10;;;;;;;4.43;2.95;;;21.70;99.90;;;;;;4990270;28;20042;-86
2023/08/05 12:12:37;;;;;;;4.30;3.05;;;21.70;99.90;;;;;;4990279;28;20126;-87
2023/08/05 12:15:10;;;;;;;3.85;3.20;;;21.80;99.90;;;;;;4983840;28;20053;-87
2023/08/05 12:17:36;;;;;;;4.95;3.78;;;21.80;99.90;;;;;;4969117;28;20401;-87
2023/08/05 12:20:07;;;;;;;3.50;3.20;;;21.80;99.90;;;;;;4977084;28;20043;-87
2023/08/05 12:22:34;;;;;;;2.75;2.55;;;21.90;99.90;;;;;;4993749;28;20051;-88
2023/08/05 12:24:59;;;;;;;3.15;2.90;;;21.90;99.90;;;;;;4965654;28;20041;-86
2023/08/05 12:27:25;;;;;;;3.50;2.90;;;22.00;99.90;;;;;;4973316;28;20034;-88
2023/08/05 12:29:51;;;;;;;4.43;3.40;;;21.90;99.90;;;;;;4987510;28;20460;-87
2023/08/05 12:32:16;;;;;;;6.20;2.95;;;21.70;99.90;;;;;;4985091;28;20030;-86
2023/08/05 12:34:42;;;;;;;3.92;3.53;;;21.70;99.90;;;;;;4993410;28;20042;-87
2023/08/05 12:37:07;;;;;;;3.60;3.10;;;21.60;99.90;;;;;;4973384;28;20100;-86
2023/08/05 12:39:33;;;;;;;3.83;3.00;;;21.60;99.90;;;;;;4965881;28;20051;-86
2023/08/05 12:41:59;;;;;;;4.68;2.80;;;21.60;99.90;;;;;;4984763;28;20034;-87
2023/08/05 12:44:24;;;;;;;3.80;2.90;;;21.50;99.90;;;;;;4976740;28;20053;-86
2023/08/05 12:46:50;;;;;;;3.95;2.78;;;21.40;99.90;;;;;;4976482;28;20042;-86
2023/08/05 12:49:15;;;;;;;3.60;3.30;;;21.30;99.90;;;;;;4975596;28;20215;-87
2023/08/05 12:51:41;;;;;;;3.30;3.00;;;21.20;99.90;;;;;;4976687;28;20038;-86
2023/08/05 12:54:06;;;;;;;3.75;2.92;;;21.20;99.90;;;;;;4969422;28;20118;-85
2023/08/05 12:56:32;;;;;;;3.20;2.63;;;21.10;99.90;;;;;;4973698;28;20070;-85
2023/08/05 12:58:58;;;;;;;3.10;2.80;;;21.00;99.90;;;;;;4976625;28;20397;-85
2023/08/05 13:01:23;;;;;;;3.80;2.58;;;20.90;99.90;;;;;;4976658;28;20511;-84
2023/08/05 13:03:49;;;;;;;4.35;2.72;;;20.70;99.90;;;;;;4976530;28;20098;-86
2023/08/05 13:06:15;;;;;;;3.33;2.95;;;20.60;99.90;;;;;;4992210;28;20086;-85
2023/08/05 13:08:40;;;;;;;3.78;3.25;;;20.60;99.90;;;;;;4964916;28;20038;-85
2023/08/05 13:11:06;;;;;;;4.00;3.20;;;20.50;99.90;;;;;;4972978;28;20094;-85
2023/08/05 13:13:31;;;;;;;3.92;3.28;;;20.40;99.90;;;;;;4972831;28;20057;-85
2023/08/05 13:15:57;;;;;;;4.65;3.05;;;20.50;99.90;;;;;;4972514;28;20050;-85
2023/08/05 13:18:30;;;;;;;3.15;2.83;;;20.50;99.90;;;;;;4959942;28;20449;-85
2023/08/05 13:20:56;;;;;;;3.35;2.90;;;20.50;99.90;;;;;;4973592;28;20053;-85
2023/08/05 13:23:21;;;;;;;3.40;3.10;;;20.40;99.90;;;;;;4972779;28;20129;-86
2023/08/05 13:25:47;;;;;;;3.40;3.10;;;20.40;99.90;;;;;;4956303;28;20093;-85
2023/08/05 13:28:13;;;;;;;4.35;3.20;;;20.40;99.90;;;;;;4972651;28;20046;-86
2023/08/05 13:30:38;;;;;;;4.72;2.83;;;20.40;99.90;;;;;;4972590;28;20469;-85
2023/08/05 13:33:04;;;;;;;3.95;2.97;;;20.50;99.90;;;;;;4980340;28;20039;-86
2023/08/05 13:35:29;;;;;;;3.90;3.60;;;20.60;99.90;;;;;;4984890;28;20487;-85
2023/08/05 13:37:55;;;;;;;5.00;3.10;;;20.60;99.90;;;;;;4968010;28;20109;-87
2023/08/05 13:40:21;;;;;;;3.20;3.00;;;20.60;99.90;;;;;;4991784;28;20046;-86
2023/08/05 13:42:47;;;;;;;3.90;2.38;;;20.60;99.90;;;;;;4976068;28;20097;-85
2023/08/05 13:45:35;;;;;;;2.75;2.38;;;20.40;99.90;;;;;;4965881;28;20038;-86
2023/08/05 13:48:06;;;;;;;3.95;2.97;;;19.90;99.90;;;;;;4957227;28;20139;-85
2023/08/05 13:50:48;;;;;;;5.18;2.80;;;19.40;99.90;;;;;;4972545;28;20604;-85
2023/08/05 13:53:22;;;;;;;5.85;4.25;;;18.80;99.90;;;;;;4956413;28;20487;-89
2023/08/05 13:55:56;;;;;;;19.60;7.03;;;18.30;99.90;;;;;;4956484;28;20469;-87
2023/08/05 13:58:22;;;;;;;17.10;8.88;;;17.80;99.90;;;;;;4956259;28;20042;-87
2023/08/05 14:00:48;;;;;;;16.58;7.57;;;17.30;99.90;;;;;;4965109;28;20124;-87
2023/08/05 14:03:14;;;;;;;10.95;7.20;;;16.90;99.90;;;;;;4983377;28;20121;-87
2023/08/05 14:05:39;;;;;;;10.23;9.15;;;16.60;99.90;;;;;;4984028;28;20038;-88
2023/08/05 14:08:05;;;;;;;9.85;8.68;;;16.20;99.90;;;;;;4979633;28;20083;-87
2023/08/05 14:10:30;;;;;;;9.48;8.57;;;15.90;99.90;;;;;;4955985;28;20094;-88
2023/08/05 14:12:57;;;;;;;10.88;9.77;;;15.90;99.90;;;;;;4972207;28;20046;-85
2023/08/05 14:15:23;;;;;;;11.43;10.40;;;15.70;99.90;;;;;;4956052;28;20560;-87
2023/08/05 14:17:49;;;;;;;11.75;10.68;;;15.60;99.90;;;;;;4963389;28;20073;-85
2023/08/05 14:20:15;;;;;;;26.70;15.57;;;15.60;99.90;;;;;;4966555;28;20043;-83
2023/08/05 14:22:41;;;;;;;27.70;17.45;;;15.50;99.90;;;;;;4955934;28;20379;-84
2023/08/05 14:25:07;;;;;;;106.22;33.80;;;15.50;99.90;;;;;;4955915;28;20568;-86
2023/08/05 14:27:33;;;;;;;21.38;15.32;;;15.50;99.90;;;;;;4971603;28;20055;-87
2023/08/05 14:29:58;;;;;;;13.00;11.68;;;15.50;99.90;;;;;;4958173;28;20489;-89
2023/08/05 14:32:24;;;;;;;15.55;14.00;;;15.50;99.90;;;;;;4959050;28;20039;-88
2023/08/05 14:34:52;;;;;;;13.48;12.35;;;15.50;99.90;;;;;;4963983;28;20482;-90
2023/08/05 14:37:18;;;;;;;15.43;13.88;;;15.50;99.90;;;;;;4958762;28;20031;-89
2023/08/05 14:39:44;;;;;;;17.88;15.95;;;15.50;99.90;;;;;;4954928;28;20382;-90
2023/08/05 14:42:09;;;;;;;14.93;13.48;;;15.50;99.90;;;;;;4956241;28;20041;-88
2023/08/05 14:44:42;;;;;;;17.40;15.77;;;15.50;99.90;;;;;;4955365;28;20525;-89
2023/08/05 14:47:07;;;;;;;15.75;14.35;;;15.50;99.90;;;;;;4955534;28;20039;-89
2023/08/05 14:49:33;;;;;;;13.57;12.40;;;15.50;99.90;;;;;;4955697;28;20049;-88
2023/08/05 14:51:59;;;;;;;14.18;12.95;;;15.50;99.90;;;;;;4953750;28;20049;-87
2023/08/05 14:54:26;;;;;;;14.10;12.68;;;15.40;99.90;;;;;;4971233;28;20043;-87
2023/08/05 14:56:52;;;;;;;18.15;16.33;;;15.40;99.90;;;;;;4965547;28;20350;-87
2023/08/05 14:59:17;;;;;;;20.52;17.63;;;15.40;99.90;;;;;;4955610;28;20081;-86
2023/08/05 15:01:43;;;;;;;18.30;15.30;;;15.40;99.90;;;;;;4956207;28;20050;-87
2023/08/05 15:04:09;;;;;;;35.13;20.02;;;15.40;99.90;;;;;;4957871;28;20035;-86
2023/08/05 15:06:35;;;;;;;19.80;17.70;;;15.30;99.90;;;;;;4956599;28;20097;-86
2023/08/05 15:09:01;;;;;;;22.08;19.73;;;15.40;99.90;;;;;;4968921;28;20129;-85
2023/08/05 15:11:26;;;;;;;16.90;15.50;;;15.40;99.90;;;;;;4975366;28;20205;-83
2023/08/05 15:13:52;;;;;;;22.42;20.13;;;15.30;99.90;;;;;;4974761;28;20043;-88
2023/08/05 15:16:18;;;;;;;17.80;16.25;;;15.40;99.90;;;;;;4940825;29;20090;-86
2023/08/05 15:18:43;;;;;;;16.70;15.02;;;15.40;99.90;;;;;;4973420;28;20102;-83
2023/08/05 15:21:09;;;;;;;14.15;12.95;;;15.30;99.90;;;;;;4976057;28;20074;-86
2023/08/05 15:23:35;;;;;;;21.25;16.83;;;15.30;99.90;;;;;;4977798;28;20045;-84
2023/08/05 15:26:02;;;;;;;14.77;13.60;;;15.30;99.90;;;;;;4962607;28;20188;-85
2023/08/05 15:28:28;;;;;;;14.93;13.52;;;15.20;99.90;;;;;;4962872;28;20125;-86
2023/08/05 15:30:54;;;;;;;15.75;13.52;;;15.20;99.90;;;;;;4978813;28;20046;-85
2023/08/05 15:33:22;;;;;;;19.77;16.70;;;15.20;99.90;;;;;;4969102;28;20035;-84
2023/08/05 15:35:47;;;;;;;13.98;12.77;;;15.20;99.90;;;;;;4955794;29;20043;-84
2023/08/05 15:38:13;;;;;;;13.05;12.05;;;15.10;99.90;;;;;;4965914;28;20404;-84
2023/08/05 15:40:39;;;;;;;12.88;11.75;;;15.20;99.90;;;;;;4948286;28;20047;-85
2023/08/05 15:43:04;;;;;;;15.75;14.32;;;15.10;99.90;;;;;;4960378;28;20043;-82
2023/08/05 15:45:31;;;;;;;13.40;11.88;;;15.10;99.90;;;;;;4955281;29;20073;-85
2023/08/05 15:47:57;;;;;;;16.08;14.50;;;15.10;99.90;;;;;;4939638;28;20043;-84
2023/08/05 15:50:23;;;;;;;22.02;20.13;;;15.20;99.90;;;;;;4943811;29;20529;-85
2023/08/05 15:52:49;;;;;;;17.08;15.48;;;15.10;99.90;;;;;;4962063;28;20462;-85
2023/08/05 15:55:16;;;;;;;19.20;17.27;;;15.10;99.90;;;;;;4959259;28;20038;-85
2023/08/05 15:57:43;;;;;;;30.65;21.63;;;15.20;99.90;;;;;;4956025;28;20378;-83
2023/08/05 16:00:10;;;;;;;24.65;20.45;;;15.10;99.90;;;;;;4974330;28;20070;-83
2023/08/05 16:02:36;;;;;;;20.25;18.02;;;15.20;99.90;;;;;;4967567;28;20051;-83
2023/08/05 16:05:02;;;;;;;17.67;16.00;;;15.30;99.90;;;;;;4966763;28;20043;-83
2023/08/05 16:07:28;;;;;;;18.85;17.05;;;15.30;99.90;;;;;;4977363;28;20528;-83